createdAt,value
2022-11-16T00:01:36.915Z,14.30
2022-11-16T00:04:04.599Z,14.30
2022-11-16T00:06:31.474Z,14.30
2022-11-16T00:09:19.035Z,14.30
2022-11-16T00:11:46.519Z,14.40
2022-11-16T00:14:13.316Z,14.30
2022-11-16T00:16:40.395Z,14.30
2022-11-16T00:19:07.848Z,14.30
2022-11-16T00:21:35.073Z,14.30
2022-11-16T00:24:02.861Z,14.30
2022-11-16T00:26:29.922Z,14.30
2022-11-16T00:28:57.200Z,14.40
2022-11-16T00:31:24.863Z,14.30
2022-11-16T00:33:51.941Z,14.30
2022-11-16T00:36:18.963Z,14.30
2022-11-16T00:38:46.065Z,14.30
2022-11-16T00:41:12.934Z,14.30
2022-11-16T00:43:39.670Z,14.30
2022-11-16T00:46:06.623Z,14.20
2022-11-16T00:48:33.776Z,14.30
2022-11-16T00:51:00.681Z,14.30
2022-11-16T00:53:27.550Z,14.40
2022-11-16T00:55:54.348Z,14.30
2022-11-16T00:58:21.148Z,14.40
2022-11-16T01:00:47.998Z,14.30
2022-11-16T01:03:14.814Z,14.40
2022-11-16T01:05:41.749Z,14.30
2022-11-16T01:08:08.561Z,14.30
2022-11-16T01:10:35.469Z,14.30
2022-11-16T01:13:02.348Z,14.30
2022-11-16T01:15:29.179Z,14.30
2022-11-16T01:17:57.140Z,14.30
2022-11-16T01:20:26.829Z,14.30
2022-11-16T01:22:54.152Z,14.30
2022-11-16T01:25:21.614Z,14.20
2022-11-16T01:27:48.547Z,14.30
2022-11-16T01:30:16.487Z,14.30
2022-11-16T01:32:43.617Z,14.30
2022-11-16T01:35:15.613Z,14.30
2022-11-16T01:37:42.541Z,14.30
2022-11-16T01:40:10.527Z,14.30
2022-11-16T01:42:37.567Z,14.30
2022-11-16T01:45:15.887Z,14.30
2022-11-16T01:47:43.017Z,14.30
2022-11-16T01:50:13.494Z,14.40
2022-11-16T01:52:47.638Z,14.30
2022-11-16T01:55:15.269Z,14.40
2022-11-16T01:57:45.211Z,14.40
2022-11-16T02:00:13.464Z,14.30
2022-11-16T02:02:40.467Z,14.30
2022-11-16T02:05:08.274Z,14.30
2022-11-16T02:08:06.229Z,14.30
2022-11-16T02:10:54.702Z,14.40
2022-11-16T02:14:07.321Z,14.30
2022-11-16T02:16:39.337Z,14.30
2022-11-16T02:19:32.351Z,14.30
2022-11-16T02:22:11.442Z,14.30
2022-11-16T02:25:21.808Z,14.30
2022-11-16T02:28:07.499Z,14.30
2022-11-16T02:30:36.662Z,14.30
2022-11-16T02:33:11.228Z,14.30
2022-11-16T02:35:47.635Z,14.30
2022-11-16T02:38:19.618Z,14.40
2022-11-16T02:40:50.878Z,14.40
2022-11-16T02:43:23.926Z,14.40
2022-11-16T02:45:55.438Z,14.40
2022-11-16T02:48:26.197Z,14.30
2022-11-16T02:50:54.021Z,14.40
2022-11-16T02:53:22.560Z,14.40
2022-11-16T02:55:49.541Z,14.40
2022-11-16T02:58:23.287Z,14.30
2022-11-16T03:01:19.100Z,14.40
2022-11-16T03:04:15.339Z,14.30
2022-11-16T03:06:43.838Z,14.40
2022-11-16T03:09:32.016Z,14.40
2022-11-16T03:12:02.950Z,14.40
2022-11-16T03:14:34.761Z,14.30
2022-11-16T03:17:04.909Z,14.40
2022-11-16T03:19:41.138Z,14.40
2022-11-16T03:22:23.558Z,14.40
2022-11-16T03:24:51.206Z,14.40
2022-11-16T03:27:25.134Z,14.50
2022-11-16T03:30:03.929Z,14.50
2022-11-16T03:32:54.420Z,14.40
2022-11-16T03:35:32.752Z,14.50
2022-11-16T03:38:01.838Z,14.50
2022-11-16T03:40:31.776Z,14.40
2022-11-16T03:43:01.307Z,14.50
2022-11-16T03:45:29.180Z,14.50
2022-11-16T03:47:56.142Z,14.40
2022-11-16T03:50:23.381Z,14.40
2022-11-16T03:52:50.364Z,14.40
2022-11-16T03:55:17.407Z,14.50
2022-11-16T03:57:44.204Z,14.50
2022-11-16T04:00:11.594Z,14.50
2022-11-16T04:02:38.511Z,14.50
2022-11-16T04:05:23.901Z,14.50
2022-11-16T04:08:09.436Z,14.50
2022-11-16T04:10:55.030Z,14.50
2022-11-16T04:13:46.814Z,14.40
2022-11-16T04:16:32.246Z,14.50
2022-11-16T04:19:17.727Z,14.50
2022-11-16T04:22:13.350Z,14.50
2022-11-16T04:24:44.316Z,14.50
2022-11-16T04:27:33.221Z,14.50
2022-11-16T04:30:02.439Z,14.60
2022-11-16T04:32:47.735Z,14.50
2022-11-16T04:35:47.156Z,14.40
2022-11-16T04:38:14.333Z,14.50
2022-11-16T04:40:41.195Z,14.50
2022-11-16T04:43:08.067Z,14.40
2022-11-16T04:45:53.898Z,14.40
2022-11-16T04:48:21.512Z,14.40
2022-11-16T04:50:48.506Z,14.50
2022-11-16T04:53:15.471Z,14.40
2022-11-16T04:55:42.361Z,14.40
2022-11-16T04:58:09.213Z,14.40
2022-11-16T05:00:36.108Z,14.40
2022-11-16T05:03:04.903Z,14.50
2022-11-16T05:05:31.700Z,14.40
2022-11-16T05:07:58.722Z,14.50
2022-11-16T05:10:25.598Z,14.50
2022-11-16T05:12:52.424Z,14.50
2022-11-16T05:15:19.872Z,14.40
2022-11-16T05:17:47.376Z,14.40
2022-11-16T05:20:33.301Z,14.40
2022-11-16T05:23:00.122Z,14.50
2022-11-16T05:25:27.955Z,14.50
2022-11-16T05:27:57.138Z,14.40
2022-11-16T05:30:23.940Z,14.50
2022-11-16T05:32:50.691Z,14.40
2022-11-16T05:35:17.660Z,14.40
2022-11-16T05:37:44.478Z,14.40
2022-11-16T05:40:11.949Z,14.40
2022-11-16T05:42:38.826Z,14.40
2022-11-16T05:45:06.202Z,14.50
2022-11-16T05:47:33.654Z,14.40
2022-11-16T05:50:00.539Z,14.40
2022-11-16T05:52:27.311Z,14.40
2022-11-16T05:54:54.086Z,14.40
2022-11-16T05:57:21.058Z,14.40
2022-11-16T05:59:47.825Z,14.40
2022-11-16T06:02:14.789Z,14.40
2022-11-16T06:04:41.642Z,14.40
2022-11-16T06:07:08.512Z,14.50
2022-11-16T06:09:35.393Z,14.40
2022-11-16T06:12:02.286Z,14.40
2022-11-16T06:14:29.053Z,14.30
2022-11-16T06:16:55.861Z,14.40
2022-11-16T06:19:22.717Z,14.40
2022-11-16T06:21:49.687Z,14.40
2022-11-16T06:24:16.505Z,14.40
2022-11-16T06:26:43.388Z,14.40
2022-11-16T06:29:10.191Z,14.50
2022-11-16T06:31:37.010Z,14.50
2022-11-16T06:34:04.277Z,14.50
2022-11-16T06:36:32.205Z,14.40
2022-11-16T06:39:01.047Z,14.50
2022-11-16T06:41:27.994Z,14.40
2022-11-16T06:43:54.771Z,14.50
2022-11-16T06:46:21.624Z,14.40
2022-11-16T06:48:48.824Z,14.40
2022-11-16T06:51:15.843Z,14.40
2022-11-16T06:53:42.657Z,14.40
2022-11-16T06:56:12.240Z,14.50
2022-11-16T06:58:42.491Z,14.50
2022-11-16T07:01:11.856Z,14.50
2022-11-16T07:03:39.157Z,14.40
2022-11-16T07:06:10.986Z,14.50
2022-11-16T07:08:38.060Z,14.60
2022-11-16T07:11:06.576Z,14.60
2022-11-16T07:13:35.007Z,14.70
2022-11-16T07:16:09.522Z,14.70
2022-11-16T07:18:38.654Z,14.70
2022-11-16T07:21:13.529Z,14.70
2022-11-16T07:23:40.557Z,14.80
2022-11-16T07:26:08.632Z,14.70
2022-11-16T07:28:36.207Z,14.70
2022-11-16T07:31:10.164Z,14.80
2022-11-16T07:33:37.964Z,14.80
2022-11-16T07:36:10.515Z,14.80
2022-11-16T07:38:37.564Z,14.80
2022-11-16T07:41:06.771Z,14.80
2022-11-16T07:43:37.711Z,14.80
2022-11-16T07:46:44.487Z,14.90
2022-11-16T07:48:57.774Z,14.90
2022-11-16T07:51:24.550Z,15.00
2022-11-16T07:53:55.971Z,15.00
2022-11-16T07:56:23.554Z,15.00
2022-11-16T07:58:50.546Z,15.10
2022-11-16T08:01:18.670Z,15.10
2022-11-16T08:03:46.425Z,15.20
2022-11-16T08:06:24.697Z,15.20
2022-11-16T08:08:57.767Z,15.30
2022-11-16T08:11:25.478Z,15.40
2022-11-16T08:13:52.323Z,15.40
2022-11-16T08:16:21.388Z,15.70
2022-11-16T08:18:48.568Z,15.70
2022-11-16T08:21:17.447Z,15.80
2022-11-16T08:23:47.609Z,15.80
2022-11-16T08:26:17.186Z,15.70
2022-11-16T08:28:45.668Z,15.70
2022-11-16T08:31:18.672Z,15.70
2022-11-16T08:33:45.517Z,15.70
2022-11-16T08:36:17.332Z,15.70
2022-11-16T08:38:45.774Z,15.60
2022-11-16T08:41:12.805Z,15.70
2022-11-16T08:43:40.520Z,15.80
2022-11-16T08:46:09.359Z,15.80
2022-11-16T08:48:37.554Z,15.90
2022-11-16T08:51:22.256Z,15.90
2022-11-16T08:53:49.787Z,15.90
2022-11-16T08:56:18.145Z,15.90
2022-11-16T08:58:47.434Z,16.10
2022-11-16T09:01:17.225Z,16.10
2022-11-16T09:03:44.682Z,16.10
2022-11-16T09:06:12.445Z,16.10
2022-11-16T09:08:41.351Z,16.10
2022-11-16T09:11:11.436Z,16.10
2022-11-16T09:13:38.515Z,16.20
2022-11-16T09:16:05.590Z,16.20
2022-11-16T09:18:34.456Z,16.20
2022-11-16T09:21:01.520Z,16.30
2022-11-16T09:23:28.628Z,16.40
2022-11-16T09:25:55.516Z,16.60
2022-11-16T09:28:23.228Z,16.60
2022-11-16T09:30:51.664Z,16.70
2022-11-16T09:33:19.005Z,16.70
2022-11-16T09:35:47.081Z,16.60
2022-11-16T09:38:20.714Z,16.70
2022-11-16T09:40:53.723Z,16.70
2022-11-16T09:43:39.554Z,16.70
2022-11-16T09:46:47.782Z,16.70
2022-11-16T09:49:20.823Z,16.70
2022-11-16T09:51:50.722Z,16.60
2022-11-16T09:54:23.111Z,16.60
2022-11-16T09:56:54.348Z,16.50
2022-11-16T09:59:32.859Z,16.60
2022-11-16T10:02:16.746Z,16.50
2022-11-16T10:04:58.142Z,16.60
2022-11-16T10:07:48.580Z,16.70
2022-11-16T10:10:35.016Z,16.70
2022-11-16T10:13:32.199Z,16.70
2022-11-16T10:16:12.310Z,16.70
2022-11-16T10:18:49.091Z,16.80
2022-11-16T10:21:31.009Z,17.00
2022-11-16T10:24:25.379Z,17.00
2022-11-16T10:26:59.245Z,17.10
2022-11-16T10:29:40.093Z,17.10
2022-11-16T10:32:28.329Z,17.10
2022-11-16T10:35:12.769Z,17.20
2022-11-16T10:37:41.067Z,17.20
2022-11-16T10:40:23.459Z,17.20
2022-11-16T10:43:15.135Z,17.20
2022-11-16T10:45:57.905Z,17.20
2022-11-16T10:48:48.481Z,17.30
2022-11-16T10:51:15.363Z,17.30
2022-11-16T10:53:46.662Z,17.30
2022-11-16T10:56:37.448Z,17.30
2022-11-16T10:59:07.083Z,17.30
2022-11-16T11:01:34.129Z,17.20
2022-11-16T11:04:19.494Z,17.20
2022-11-16T11:06:48.500Z,17.20
2022-11-16T11:09:37.263Z,17.20
2022-11-16T11:12:32.982Z,17.10
2022-11-16T11:15:04.586Z,17.00
2022-11-16T11:17:33.732Z,17.00
2022-11-16T11:20:20.260Z,17.10
2022-11-16T11:22:47.022Z,17.40
2022-11-16T11:25:23.475Z,17.50
2022-11-16T11:27:52.800Z,17.60
2022-11-16T11:30:21.429Z,17.50
2022-11-16T11:32:49.037Z,17.40
2022-11-16T11:35:31.127Z,17.30
2022-11-16T11:38:07.498Z,17.30
2022-11-16T11:40:34.973Z,17.20
2022-11-16T11:43:06.077Z,17.10
2022-11-16T11:45:46.999Z,17.10
2022-11-16T11:48:21.158Z,17.00
2022-11-16T11:50:55.978Z,16.90
2022-11-16T11:53:48.334Z,16.80
2022-11-16T11:56:15.510Z,16.80
2022-11-16T11:58:44.176Z,16.80
2022-11-16T12:01:44.896Z,16.90
2022-11-16T12:04:36.853Z,16.80
2022-11-16T12:07:37.634Z,16.90
2022-11-16T12:10:13.658Z,17.10
2022-11-16T12:12:49.424Z,17.20
2022-11-16T12:15:50.071Z,17.20
2022-11-16T12:18:35.683Z,17.20
2022-11-16T12:21:13.819Z,17.20
2022-11-16T12:23:55.558Z,17.20
2022-11-16T12:26:57.166Z,17.30
2022-11-16T12:29:43.560Z,17.40
2022-11-16T12:32:42.657Z,17.40
2022-11-16T12:35:37.266Z,17.50
2022-11-16T12:38:07.460Z,17.50
2022-11-16T12:41:01.688Z,17.50
2022-11-16T12:43:39.815Z,17.50
2022-11-16T12:46:22.977Z,17.40
2022-11-16T12:49:31.929Z,17.40
2022-11-16T12:52:17.219Z,17.50
2022-11-16T12:55:24.925Z,17.40
2022-11-16T12:58:04.123Z,17.50
2022-11-16T13:00:51.650Z,17.70
2022-11-16T13:03:38.131Z,18.00
2022-11-16T13:06:08.586Z,18.00
2022-11-16T13:08:44.441Z,18.10
2022-11-16T13:11:28.956Z,18.30
2022-11-16T13:14:03.972Z,18.30
2022-11-16T13:16:31.312Z,18.40
2022-11-16T13:19:00.038Z,18.40
2022-11-16T13:21:45.388Z,18.50
2022-11-16T13:24:33.708Z,18.40
2022-11-16T13:27:27.364Z,18.30
2022-11-16T13:30:02.336Z,18.30
2022-11-16T13:32:47.244Z,18.20
2022-11-16T13:35:16.445Z,18.20
2022-11-16T13:37:48.226Z,18.20
2022-11-16T13:40:22.393Z,18.30
2022-11-16T13:43:06.863Z,18.20
2022-11-16T13:45:36.066Z,18.30
2022-11-16T13:48:13.835Z,18.40
2022-11-16T13:50:53.369Z,18.40
2022-11-16T13:56:48.967Z,18.60
2022-11-16T13:59:23.315Z,18.50
2022-11-16T14:02:28.068Z,18.40
2022-11-16T14:04:56.591Z,18.40
2022-11-16T14:07:32.450Z,18.30
2022-11-16T14:09:59.658Z,18.30
2022-11-16T14:12:38.456Z,18.20
2022-11-16T14:15:20.890Z,18.30
2022-11-16T14:17:59.039Z,18.20
2022-11-16T14:20:35.061Z,18.20
2022-11-16T14:23:04.538Z,18.20
2022-11-16T14:26:14.848Z,18.20
2022-11-16T14:28:50.577Z,18.10
2022-11-16T14:31:23.984Z,18.00
2022-11-16T14:33:56.396Z,18.00
2022-11-16T14:36:44.122Z,18.00
2022-11-16T14:39:46.563Z,17.90
2022-11-16T14:42:19.841Z,18.00
2022-11-16T14:44:47.745Z,17.90
2022-11-16T14:47:25.833Z,17.80
2022-11-16T14:49:54.183Z,17.90
2022-11-16T14:52:45.430Z,17.80
2022-11-16T14:55:24.439Z,18.00
2022-11-16T14:58:24.283Z,17.90
2022-11-16T15:01:02.985Z,18.10
2022-11-16T15:03:42.056Z,18.00
2022-11-16T15:06:09.239Z,18.00
2022-11-16T15:08:45.585Z,18.00
2022-11-16T15:12:06.981Z,17.90
2022-11-16T15:14:40.910Z,17.80
2022-11-16T15:17:08.703Z,17.80
2022-11-16T15:19:35.508Z,17.60
2022-11-16T15:22:04.340Z,17.50
2022-11-16T15:24:35.169Z,17.50
2022-11-16T15:27:33.618Z,17.50
2022-11-16T15:30:24.561Z,17.50
2022-11-16T15:32:52.763Z,17.50
2022-11-16T15:35:33.982Z,17.40
2022-11-16T15:38:14.582Z,17.40
2022-11-16T15:40:49.284Z,17.30
2022-11-16T15:43:16.325Z,17.20
2022-11-16T15:45:43.761Z,17.20
2022-11-16T15:48:19.927Z,17.20
2022-11-16T15:51:08.698Z,17.10
2022-11-16T15:53:43.826Z,17.00
2022-11-16T15:56:25.884Z,17.00
2022-11-16T15:58:54.949Z,16.80
2022-11-16T16:01:23.192Z,16.80
2022-11-16T16:04:00.160Z,16.70
2022-11-16T16:06:50.491Z,16.70
2022-11-16T16:09:29.133Z,16.60
2022-11-16T16:12:17.639Z,16.60
2022-11-16T16:14:46.387Z,16.50
2022-11-16T16:17:26.518Z,16.40
2022-11-16T16:20:02.090Z,16.40
2022-11-16T16:22:30.997Z,16.40
2022-11-16T16:24:58.279Z,16.30
2022-11-16T16:27:29.767Z,16.30
2022-11-16T16:29:59.097Z,16.40
2022-11-16T16:32:30.849Z,16.40
2022-11-16T16:35:03.178Z,16.40
2022-11-16T16:37:31.907Z,16.30
2022-11-16T16:39:59.741Z,16.30
2022-11-16T16:42:26.714Z,16.20
2022-11-16T16:44:54.558Z,16.20
2022-11-16T16:47:21.304Z,16.20
2022-11-16T16:49:49.251Z,16.20
2022-11-16T16:52:16.640Z,16.10
2022-11-16T16:54:43.567Z,16.10
2022-11-16T16:57:18.112Z,16.00
2022-11-16T16:59:45.818Z,16.00
2022-11-16T17:02:13.157Z,16.00
2022-11-16T17:04:40.623Z,16.10
2022-11-16T17:07:07.560Z,16.00
2022-11-16T17:09:34.314Z,15.90
2022-11-16T17:12:01.138Z,16.00
2022-11-16T17:14:27.940Z,15.80
2022-11-16T17:16:54.797Z,15.90
2022-11-16T17:19:24.928Z,15.80
2022-11-16T17:21:52.523Z,15.70
2022-11-16T17:24:19.614Z,15.80
2022-11-16T17:26:49.251Z,15.70
2022-11-16T17:29:16.536Z,15.70
2022-11-16T17:31:46.265Z,15.60
2022-11-16T17:34:14.100Z,15.60
2022-11-16T17:36:42.040Z,15.50
2022-11-16T17:39:09.206Z,15.60
2022-11-16T17:41:36.352Z,15.50
2022-11-16T17:44:04.227Z,15.50
2022-11-16T17:46:30.998Z,15.50
2022-11-16T17:48:57.810Z,15.50
2022-11-16T17:51:25.670Z,15.40
2022-11-16T17:53:52.833Z,15.50
2022-11-16T17:56:27.649Z,15.50
2022-11-16T17:58:55.233Z,15.40
2022-11-16T18:01:22.913Z,15.40
2022-11-16T18:03:50.070Z,15.30
2022-11-16T18:06:22.694Z,15.40
2022-11-16T18:08:49.724Z,15.30
2022-11-16T18:11:17.647Z,15.30
2022-11-16T18:13:46.803Z,15.20
2022-11-16T18:16:16.221Z,15.20
2022-11-16T18:18:43.541Z,15.30
2022-11-16T18:21:13.544Z,15.20
2022-11-16T18:23:43.245Z,15.10
2022-11-16T18:26:12.916Z,15.10
2022-11-16T18:28:41.112Z,15.10
2022-11-16T18:31:12.177Z,15.10
2022-11-16T18:33:39.583Z,15.10
2022-11-16T18:36:07.421Z,15.10
2022-11-16T18:38:34.739Z,15.10
2022-11-16T18:41:16.530Z,15.00
2022-11-16T18:43:54.369Z,15.00
2022-11-16T18:46:24.033Z,15.00
2022-11-16T18:48:51.050Z,14.90
2022-11-16T18:51:18.737Z,15.00
2022-11-16T18:53:45.819Z,14.90
2022-11-16T18:56:12.894Z,14.90
2022-11-16T18:58:55.364Z,14.90
2022-11-16T19:01:24.263Z,14.90
2022-11-16T19:03:52.638Z,14.80
2022-11-16T19:06:20.119Z,14.80
2022-11-16T19:08:53.973Z,14.80
2022-11-16T19:11:23.410Z,14.80
2022-11-16T19:14:07.531Z,14.80
2022-11-16T19:16:34.835Z,14.70
2022-11-16T19:19:01.675Z,14.70
2022-11-16T19:21:28.677Z,14.60
2022-11-16T19:23:56.797Z,14.70
2022-11-16T19:26:26.229Z,14.70
2022-11-16T19:28:54.233Z,14.70
2022-11-16T19:31:25.564Z,14.70
2022-11-16T19:33:57.362Z,14.60
2022-11-16T19:36:25.514Z,14.70
2022-11-16T19:38:53.072Z,14.70
2022-11-16T19:41:22.344Z,14.70
2022-11-16T19:43:58.821Z,14.60
2022-11-16T19:46:27.788Z,14.50
2022-11-16T19:48:55.780Z,14.60
2022-11-16T19:51:27.938Z,14.50
2022-11-16T19:53:55.281Z,14.50
2022-11-16T19:56:23.962Z,14.50
2022-11-16T19:58:51.294Z,14.50
2022-11-16T20:01:27.928Z,14.50
2022-11-16T20:03:59.842Z,14.50
2022-11-16T20:06:38.496Z,14.50
2022-11-16T20:09:12.134Z,14.40
2022-11-16T20:11:40.948Z,14.50
2022-11-16T20:14:10.277Z,14.40
2022-11-16T20:16:39.813Z,14.30
2022-11-16T20:19:08.381Z,14.40
2022-11-16T20:21:37.801Z,14.40
2022-11-16T20:24:07.418Z,14.40
2022-11-16T20:26:35.536Z,14.30
2022-11-16T20:29:02.890Z,14.40
2022-11-16T20:31:32.126Z,14.30
2022-11-16T20:34:07.084Z,14.30
2022-11-16T20:36:34.042Z,14.30
2022-11-16T20:39:00.928Z,14.30
2022-11-16T20:41:29.949Z,14.30
2022-11-16T20:44:01.188Z,14.30
2022-11-16T20:46:30.678Z,14.30
2022-11-16T20:48:59.502Z,14.20
2022-11-16T20:51:26.831Z,14.20
2022-11-16T20:53:53.900Z,14.20
2022-11-16T20:56:20.975Z,14.20
2022-11-16T20:58:49.130Z,14.20
2022-11-16T21:01:18.874Z,14.20
2022-11-16T21:03:45.918Z,14.10
2022-11-16T21:06:14.609Z,14.20
2022-11-16T21:08:42.499Z,14.10
2022-11-16T21:11:21.670Z,14.10
2022-11-16T21:14:07.130Z,14.20
2022-11-16T21:16:34.647Z,14.10
2022-11-16T21:19:02.034Z,14.10
2022-11-16T21:21:29.361Z,14.10
2022-11-16T21:23:56.241Z,14.00
2022-11-16T21:26:31.122Z,14.10
2022-11-16T21:28:59.079Z,14.00
2022-11-16T21:31:29.860Z,14.00
2022-11-16T21:33:57.705Z,14.00
2022-11-16T21:36:26.615Z,14.00
2022-11-16T21:38:53.964Z,14.00
2022-11-16T21:41:22.662Z,13.90
2022-11-16T21:43:49.693Z,14.00
2022-11-16T21:46:19.001Z,13.90
2022-11-16T21:48:47.804Z,13.90
2022-11-16T21:51:17.041Z,14.00
2022-11-16T21:53:44.445Z,14.00
2022-11-16T21:56:22.336Z,14.00
2022-11-16T21:58:55.520Z,14.00
2022-11-16T22:01:24.101Z,14.00
2022-11-16T22:04:11.213Z,14.00
2022-11-16T22:06:56.867Z,14.00
2022-11-16T22:09:23.781Z,14.10
2022-11-16T22:11:50.663Z,14.00
2022-11-16T22:14:17.452Z,14.20
2022-11-16T22:16:44.274Z,14.20
2022-11-16T22:19:11.100Z,14.20
2022-11-16T22:21:37.913Z,14.20
2022-11-16T22:24:04.940Z,14.20
2022-11-16T22:26:31.837Z,14.20
2022-11-16T22:28:59.110Z,14.20
2022-11-16T22:31:26.107Z,14.20
2022-11-16T22:33:53.846Z,14.20
2022-11-16T22:36:20.677Z,14.20
2022-11-16T22:38:47.529Z,14.10
2022-11-16T22:41:14.401Z,14.10
2022-11-16T22:43:41.244Z,14.10
2022-11-16T22:46:10.933Z,14.20
2022-11-16T22:48:40.049Z,14.10
2022-11-16T22:51:20.568Z,14.20
2022-11-16T22:53:47.676Z,14.20
2022-11-16T22:56:14.458Z,14.20
2022-11-16T22:58:41.277Z,14.20
2022-11-16T23:01:09.906Z,14.30
2022-11-16T23:03:37.681Z,14.30
2022-11-16T23:06:05.554Z,14.30
2022-11-16T23:08:33.259Z,14.30
2022-11-16T23:11:26.072Z,14.30
2022-11-16T23:14:12.662Z,14.30
2022-11-16T23:16:40.446Z,14.30
2022-11-16T23:19:29.997Z,14.30
2022-11-16T23:22:16.050Z,14.30
2022-11-16T23:25:02.264Z,14.30
2022-11-16T23:27:41.095Z,14.20
2022-11-16T23:30:12.813Z,14.30
2022-11-16T23:32:41.332Z,14.20
2022-11-16T23:35:09.125Z,14.20
2022-11-16T23:37:59.111Z,14.10
2022-11-16T23:40:28.329Z,14.10
2022-11-16T23:43:13.978Z,14.20
2022-11-16T23:45:41.485Z,14.20
2022-11-16T23:48:10.128Z,14.20
2022-11-16T23:50:37.333Z,14.10
2022-11-16T23:53:05.415Z,14.10
2022-11-16T23:55:33.675Z,14.10
2022-11-16T23:58:00.488Z,14.10
